Terminal Aerodrome Forecast
Issued by NWS Twin Cities, MN

Home | Current Version | Previous Version | Graphics & Text | Print | Product List | Glossary On
Versions: 1 2 3 4 5 6 7 8 9 10 11 12 13 14 15 16 17 18 19 20 21 22 23 24 25 26
000
FTUS43 KMPX 262001 AAA
TAFMSP
TAF AMD
KMSP 262001Z 2620/2724 32012G20KT P6SM BKN040
     FM262200 33009KT P6SM SCT045
     FM270000 36004KT P6SM SKC
     FM271400 VRB03KT P6SM SKC
     FM272100 16003KT P6SM FEW120=

USA.gov is the U.S. government's official web portal to all federal, state and local government web resources and services.